Time;durP1;ratioP1;P1;durP2;ratioP2;P2;SDS_P1;SDS_P2;PMS_P1;PMS_P2;Temp;Humidity;BMP_temperature;BMP_pressure;BME280_temperature;BME280_humidity;BME280_pressure;Samples;Min_cycle;Max_cycle;Signal;HPM_P1;HPM_P2
2022/10/30 00:00:27;;;;;;;11.90;9.33;;;;;;;11.71;100.00;100020.34;1703996;83;21080;-59
2022/10/30 00:02:54;;;;;;;10.47;8.60;;;;;;;11.71;100.00;100014.61;1703526;83;21783;-64
2022/10/30 00:05:21;;;;;;;9.77;8.13;;;;;;;11.73;100.00;100014.40;1704036;83;21518;-59
2022/10/30 00:07:50;;;;;;;11.27;7.90;;;;;;;11.76;100.00;100009.59;1708438;82;20988;-59
2022/10/30 00:10:17;;;;;;;10.90;8.87;;;;;;;11.76;100.00;100006.18;1703372;82;21005;-60
2022/10/30 00:12:44;;;;;;;12.63;8.27;;;;;;;11.74;100.00;100007.66;1704217;82;21108;-59
2022/10/30 00:15:11;;;;;;;11.97;9.10;;;;;;;11.74;100.00;100001.64;1705548;83;21076;-61
2022/10/30 00:17:38;;;;;;;13.37;8.93;;;;;;;11.74;100.00;99998.52;1710998;83;21399;-59
2022/10/30 00:20:07;;;;;;;12.50;8.67;;;;;;;11.73;100.00;99995.62;1711385;82;21057;-64
2022/10/30 00:22:35;;;;;;;12.90;9.00;;;;;;;11.76;100.00;99987.39;1707610;82;20936;-59
2022/10/30 00:25:03;;;;;;;11.23;8.83;;;;;;;11.76;100.00;99982.17;1704314;82;21021;-74
2022/10/30 00:27:31;;;;;;;12.47;8.73;;;;;;;11.77;100.00;99978.55;1703438;82;21538;-59
2022/10/30 00:29:58;;;;;;;10.77;8.63;;;;;;;11.81;100.00;99972.44;1704497;82;20988;-60
2022/10/30 00:32:25;;;;;;;10.80;8.43;;;;;;;11.82;100.00;99959.67;1706101;83;21052;-59
2022/10/30 00:34:52;;;;;;;10.13;7.30;;;;;;;11.83;100.00;99968.66;1694101;83;21182;-60
2022/10/30 00:37:20;;;;;;;13.83;8.37;;;;;;;11.87;100.00;99962.55;1703754;82;20965;-67
2022/10/30 00:39:47;;;;;;;11.53;8.07;;;;;;;11.90;100.00;99955.13;1703200;82;21147;-60
2022/10/30 00:42:16;;;;;;;10.43;7.40;;;;;;;11.90;100.00;99951.70;1704877;82;21749;-60
2022/10/30 00:44:51;;;;;;;10.50;8.80;;;;;;;11.90;100.00;99947.79;1712424;83;21052;-61
2022/10/30 00:47:29;;;;;;;10.63;8.30;;;;;;;11.89;100.00;99939.16;1707016;83;21408;-68
2022/10/30 00:50:10;;;;;;;11.77;8.03;;;;;;;11.91;100.00;99951.50;1707817;82;21090;-61
2022/10/30 00:52:42;;;;;;;11.00;7.90;;;;;;;11.88;100.00;99947.97;1703589;82;21781;-60
2022/10/30 00:55:17;;;;;;;9.73;7.57;;;;;;;11.80;100.00;99943.41;1708987;83;21044;-65
2022/10/30 00:57:44;;;;;;;9.73;7.77;;;;;;;11.80;100.00;99943.41;1704635;82;20933;-60
2022/10/30 01:00:12;;;;;;;10.83;8.03;;;;;;;11.75;100.00;99940.60;1704407;82;21067;-59
2022/10/30 01:02:40;;;;;;;9.90;8.20;;;;;;;11.71;100.00;99941.50;1703315;83;21013;-59
2022/10/30 01:05:07;;;;;;;11.63;7.97;;;;;;;11.69;100.00;99946.10;1702894;82;21251;-68
2022/10/30 01:07:35;;;;;;;10.33;9.13;;;;;;;11.66;100.00;99954.32;1704814;83;21357;-60
2022/10/30 01:10:04;;;;;;;10.83;8.03;;;;;;;11.62;100.00;99955.72;1708095;82;21076;-58
2022/10/30 01:12:31;;;;;;;8.47;7.13;;;;;;;11.59;100.00;99958.25;1703727;82;21636;-59
2022/10/30 01:14:58;;;;;;;10.10;7.00;;;;;;;11.59;100.00;99962.63;1704207;83;21028;-58
2022/10/30 01:17:51;;;;;;;11.30;8.30;;;;;;;11.58;100.00;99962.34;1707326;83;21909;-59
2022/10/30 01:20:44;;;;;;;9.90;8.73;;;;;;;11.59;100.00;99962.63;1705896;82;20958;-58
2022/10/30 01:23:44;;;;;;;9.87;7.50;;;;;;;11.58;100.00;99954.00;1655930;82;21068;-58
2022/10/30 01:26:29;;;;;;;9.83;8.40;;;;;;;11.53;100.00;99936.03;1712203;83;22220;-59
2022/10/30 01:29:31;;;;;;;8.60;6.87;;;;;;;11.52;100.00;99936.53;1713326;82;22058;-58
2022/10/30 01:32:15;;;;;;;8.78;7.42;;;;;;;11.51;100.00;99916.63;1704010;82;21210;-58
2022/10/30 01:35:14;;;;;;;11.03;7.80;;;;;;;11.45;100.00;99923.45;1708096;82;20976;-58
2022/10/30 01:40:27;;;;;;;9.87;7.77;;;;;;;11.44;100.00;99914.03;1683282;84;21696;-60
2022/10/30 01:42:56;;;;;;;8.43;7.10;;;;;;;11.44;100.00;99914.03;1636852;85;21087;-59
2022/10/30 01:45:52;;;;;;;9.87;7.30;;;;;;;11.42;100.00;99912.09;1660758;85;21802;-59
2022/10/30 01:49:08;;;;;;;9.80;7.43;;;;;;;11.42;100.00;99905.58;1659994;85;21753;-59
2022/10/30 01:52:04;;;;;;;10.37;7.13;;;;;;;11.42;100.00;99900.86;1657270;84;20907;-59
2022/10/30 01:55:08;;;;;;;8.67;6.93;;;;;;;11.38;100.00;99898.34;1617426;86;20979;-58
2022/10/30 01:58:14;;;;;;;10.47;8.20;;;;;;;11.38;100.00;99884.79;1656994;85;21679;-58
2022/10/30 02:00:41;;;;;;;9.87;7.53;;;;;;;11.32;100.00;99879.04;1651563;85;21157;-59
2022/10/30 02:03:08;;;;;;;10.03;8.33;;;;;;;11.32;100.00;99879.04;1657033;85;20983;-60
2022/10/30 02:05:42;;;;;;;10.90;7.80;;;;;;;11.32;100.00;99882.16;1631631;87;20956;-59
2022/10/30 02:08:10;;;;;;;9.87;8.20;;;;;;;11.32;100.00;99869.11;1630948;86;21154;-60
2022/10/30 02:10:40;;;;;;;9.63;7.90;;;;;;;11.33;100.00;99861.10;1640130;87;21043;-61
2022/10/30 02:13:07;;;;;;;9.37;8.23;;;;;;;11.33;100.00;99861.10;1639013;86;21800;-60
2022/10/30 02:15:34;;;;;;;11.73;8.53;;;;;;;11.32;100.00;99847.73;1637630;87;21058;-69
2022/10/30 02:18:01;;;;;;;9.83;8.10;;;;;;;11.30;100.00;99856.77;1635784;87;21087;-60
2022/10/30 02:20:28;;;;;;;12.23;8.03;;;;;;;11.31;100.00;99853.16;1637004;87;22048;-60
2022/10/30 02:22:56;;;;;;;11.37;8.23;;;;;;;11.31;100.00;99853.16;1636337;87;21020;-61
2022/10/30 02:25:25;;;;;;;10.03;8.07;;;;;;;11.30;100.00;99856.27;1637895;87;21235;-59
2022/10/30 02:27:53;;;;;;;10.23;8.37;;;;;;;11.31;100.00;99860.48;1637264;87;21127;-62
2022/10/30 02:30:20;;;;;;;9.90;8.27;;;;;;;11.31;100.00;99860.48;1636877;86;21527;-59
2022/10/30 02:32:48;;;;;;;12.47;8.20;;;;;;;11.31;100.00;99857.08;1636721;87;21114;-59
2022/10/30 02:35:15;;;;;;;8.83;7.30;;;;;;;11.29;100.00;99850.76;1636237;86;21048;-61
2022/10/30 02:37:43;;;;;;;11.13;8.50;;;;;;;11.31;100.00;99853.95;1637648;87;21742;-69
2022/10/30 02:40:11;;;;;;;13.03;8.80;;;;;;;11.32;100.00;99849.54;1636351;87;21512;-59
2022/10/30 02:42:38;;;;;;;8.90;7.80;;;;;;;11.34;100.00;99849.66;1631645;86;21011;-59
2022/10/30 02:45:06;;;;;;;9.47;7.73;;;;;;;11.33;100.00;99848.05;1635983;87;21744;-59
2022/10/30 02:47:35;;;;;;;11.77;8.90;;;;;;;11.36;100.00;99854.16;1637327;87;21023;-59
2022/10/30 02:50:02;;;;;;;8.20;7.03;;;;;;;11.35;100.00;99840.81;1635429;87;21122;-64
2022/10/30 02:52:31;;;;;;;9.63;7.90;;;;;;;11.36;100.00;99837.20;1636260;87;21937;-59
2022/10/30 02:54:58;;;;;;;12.07;7.80;;;;;;;11.33;100.00;99833.70;1637296;87;20959;-61
2022/10/30 02:57:26;;;;;;;9.73;8.03;;;;;;;11.35;100.00;99827.77;1637059;87;22310;-60
2022/10/30 02:59:53;;;;;;;10.27;7.97;;;;;;;11.35;100.00;99827.77;1635356;86;20982;-68
2022/10/30 03:02:20;;;;;;;9.73;7.43;;;;;;;11.37;100.00;99824.47;1636413;87;21203;-59
2022/10/30 03:04:48;;;;;;;9.87;8.47;;;;;;;11.38;100.00;99827.88;1637719;86;21582;-59
2022/10/30 03:07:15;;;;;;;11.73;8.20;;;;;;;11.34;100.00;99822.25;1637230;86;21016;-59
2022/10/30 03:09:42;;;;;;;10.03;8.27;;;;;;;11.37;100.00;99821.86;1636852;87;21674;-63
2022/10/30 03:12:10;;;;;;;8.83;7.50;;;;;;;11.37;100.00;99817.95;1658322;85;21020;-59
2022/10/30 03:14:40;;;;;;;12.03;8.30;;;;;;;11.38;100.00;99811.72;1627998;86;21713;-59
2022/10/30 03:17:07;;;;;;;9.70;8.00;;;;;;;11.38;100.00;99799.98;1605370;87;21063;-59
2022/10/30 03:19:36;;;;;;;11.07;8.57;;;;;;;11.39;100.00;99802.87;1608127;87;21848;-59
2022/10/30 03:22:05;;;;;;;12.97;8.83;;;;;;;11.39;100.00;99796.36;1638372;86;20991;-60
2022/10/30 03:24:32;;;;;;;11.37;8.57;;;;;;;11.39;100.00;99777.29;1635600;86;21027;-59
2022/10/30 03:27:00;;;;;;;12.20;9.10;;;;;;;11.39;100.00;99777.29;1637022;86;21313;-60
2022/10/30 03:29:28;;;;;;;10.67;9.13;;;;;;;11.42;100.00;99780.81;1643462;85;21136;-59
2022/10/30 03:31:56;;;;;;;12.90;8.33;;;;;;;11.39;100.00;99770.27;1629472;87;21816;-59
2022/10/30 03:34:24;;;;;;;11.37;8.50;;;;;;;11.42;100.00;99775.09;1622019;87;21607;-59
2022/10/30 03:36:52;;;;;;;10.13;8.80;;;;;;;11.43;100.00;99775.89;1614576;87;21632;-57
2022/10/30 03:39:20;;;;;;;11.43;8.30;;;;;;;11.44;100.00;99766.56;1636223;87;21808;-57
2022/10/30 03:41:48;;;;;;;13.03;8.80;;;;;;;11.43;100.00;99769.36;1636370;87;20979;-58
2022/10/30 03:44:15;;;;;;;10.77;8.30;;;;;;;11.45;100.00;99762.95;1637657;87;21504;-57
2022/10/30 03:46:42;;;;;;;10.77;8.87;;;;;;;11.45;100.00;99755.63;1637978;87;21170;-57
2022/10/30 03:49:12;;;;;;;8.87;7.33;;;;;;;11.45;100.00;99759.53;1633335;87;21860;-57
2022/10/30 03:51:40;;;;;;;9.00;7.80;;;;;;;11.48;100.00;99751.31;1631369;87;22712;-67
2022/10/30 03:54:07;;;;;;;10.43;8.47;;;;;;;11.63;100.00;99749.30;1637413;87;21544;-58
2022/10/30 03:56:34;;;;;;;11.47;7.97;;;;;;;11.63;100.00;99749.30;1637635;87;21021;-58
2022/10/30 03:59:03;;;;;;;13.57;9.40;;;;;;;11.63;100.00;99748.47;1649296;85;21051;-57
2022/10/30 04:01:30;;;;;;;14.23;9.17;;;;;;;11.65;100.00;99732.91;1640991;86;21082;-58
2022/10/30 04:03:58;;;;;;;11.90;9.30;;;;;;;11.68;100.00;99736.43;1641162;85;21244;-70
2022/10/30 04:06:26;;;;;;;12.03;9.30;;;;;;;11.63;100.00;99736.72;1627244;87;21099;-60
2022/10/30 04:08:54;;;;;;;11.87;10.17;;;;;;;11.63;100.00;99724.97;1633058;85;21043;-61
2022/10/30 04:11:21;;;;;;;11.43;9.17;;;;;;;11.64;100.00;99723.99;1648257;85;21150;-60
2022/10/30 04:13:49;;;;;;;11.93;9.53;;;;;;;11.66;100.00;99712.83;1629714;86;21108;-59
2022/10/30 04:16:16;;;;;;;12.40;10.30;;;;;;;11.68;100.00;99709.02;1654143;85;21267;-69
2022/10/30 04:18:44;;;;;;;10.93;9.40;;;;;;;11.70;100.00;99702.27;1653570;84;21059;-60
2022/10/30 04:21:12;;;;;;;12.57;10.27;;;;;;;11.71;100.00;99705.20;1651022;85;21032;-61
2022/10/30 04:23:39;;;;;;;11.33;10.20;;;;;;;11.68;100.00;99701.19;1632751;87;21071;-61
2022/10/30 04:26:08;;;;;;;12.37;10.03;;;;;;;11.71;100.00;99705.20;1611588;87;20948;-60
2022/10/30 04:28:36;;;;;;;12.43;10.37;;;;;;;11.71;100.00;99718.26;1630217;87;21749;-61
2022/10/30 04:31:05;;;;;;;11.47;9.80;;;;;;;11.69;100.00;99714.53;1610273;87;21099;-60
2022/10/30 04:33:32;;;;;;;12.67;9.37;;;;;;;11.73;100.00;99717.53;1628383;87;21071;-60
2022/10/30 04:36:02;;;;;;;10.57;9.03;;;;;;;11.76;100.00;99719.75;1631733;86;21485;-61
2022/10/30 04:38:31;;;;;;;11.13;9.93;;;;;;;11.74;100.00;99710.00;1632899;86;21719;-65
2022/10/30 04:40:58;;;;;;;11.90;10.00;;;;;;;11.68;100.00;99707.71;1631186;86;21332;-61
2022/10/30 04:43:28;;;;;;;11.53;9.23;;;;;;;11.68;100.00;99717.36;1627479;86;21763;-61
2022/10/30 04:45:55;;;;;;;15.70;10.10;;;;;;;11.67;100.00;99706.62;1651233;84;20982;-60
2022/10/30 04:48:23;;;;;;;10.30;8.97;;;;;;;11.68;100.00;99708.22;1640675;86;21110;-63
2022/10/30 04:50:50;;;;;;;13.50;9.73;;;;;;;11.71;100.00;99714.85;1636818;87;21094;-62
2022/10/30 04:53:23;;;;;;;12.00;10.20;;;;;;;11.71;100.00;99707.81;1633084;87;21805;-61
2022/10/30 04:55:55;;;;;;;13.07;10.37;;;;;;;11.70;100.00;99717.94;1637179;87;21083;-60
2022/10/30 04:58:22;;;;;;;10.97;9.83;;;;;;;11.67;100.00;99724.89;1637824;87;21075;-60
2022/10/30 05:00:51;;;;;;;13.40;10.70;;;;;;;11.67;100.00;99719.17;1635929;86;21137;-62
2022/10/30 05:03:22;;;;;;;11.37;10.13;;;;;;;11.65;100.00;99728.99;1636874;87;21512;-59
2022/10/30 05:06:01;;;;;;;12.67;9.97;;;;;;;11.71;100.00;99722.69;1647372;85;20966;-59
2022/10/30 05:08:30;;;;;;;13.93;9.70;;;;;;;11.71;100.00;99717.46;1677607;83;21815;-63
2022/10/30 05:10:58;;;;;;;10.67;9.13;;;;;;;11.72;100.00;99724.28;1681948;84;22776;-59
2022/10/30 05:13:26;;;;;;;11.93;9.70;;;;;;;11.69;100.00;99726.28;1640652;86;21083;-59
2022/10/30 05:15:54;;;;;;;11.07;9.33;;;;;;;11.74;100.00;99727.47;1637250;85;21078;-59
2022/10/30 05:18:22;;;;;;;11.50;9.77;;;;;;;11.78;100.00;99721.66;1635827;87;22256;-60
2022/10/30 05:20:48;;;;;;;11.90;9.57;;;;;;;11.78;100.00;99721.66;1637004;86;21510;-59
2022/10/30 05:23:17;;;;;;;14.37;9.10;;;;;;;11.80;100.00;99726.67;1640238;86;21704;-59
2022/10/30 05:25:44;;;;;;;10.40;8.67;;;;;;;11.82;100.00;99729.86;1622156;86;20997;-59
2022/10/30 05:28:12;;;;;;;11.20;9.40;;;;;;;11.83;100.00;99725.80;1616647;87;21015;-59
2022/10/30 05:30:40;;;;;;;10.23;9.13;;;;;;;11.87;100.00;99732.21;1668609;83;22258;-60
2022/10/30 05:33:10;;;;;;;10.50;9.27;;;;;;;11.87;100.00;99732.21;1663096;85;21068;-59
2022/10/30 05:35:38;;;;;;;10.63;8.63;;;;;;;11.92;100.00;99733.70;1663795;84;21460;-59
2022/10/30 05:38:06;;;;;;;10.43;8.73;;;;;;;11.98;100.00;99737.83;1668445;84;21107;-59
2022/10/30 05:40:33;;;;;;;11.17;9.87;;;;;;;12.02;100.00;99735.10;1665276;85;21660;-60
2022/10/30 05:43:01;;;;;;;13.60;10.83;;;;;;;12.06;100.00;99725.84;1662941;84;21670;-59
2022/10/30 05:45:30;;;;;;;11.73;9.03;;;;;;;12.12;100.00;99736.76;1667416;84;20993;-59
2022/10/30 05:48:00;;;;;;;12.23;9.40;;;;;;;12.21;100.00;99734.75;1668085;84;20943;-58
2022/10/30 05:50:29;;;;;;;11.38;8.90;;;;;;;12.22;100.00;99729.81;1663238;84;21090;-60
2022/10/30 05:53:01;;;;;;;12.33;10.03;;;;;;;12.10;100.00;99720.00;1669542;84;22364;-59
2022/10/30 05:55:29;;;;;;;10.63;9.15;;;;;;;12.15;100.00;99728.01;1668195;85;21272;-59
2022/10/30 05:58:03;;;;;;;12.50;9.20;;;;;;;12.19;100.00;99725.79;1663296;85;21017;-59
2022/10/30 06:00:34;;;;;;;12.68;9.60;;;;;;;12.22;100.00;99727.99;1667435;84;21019;-59
2022/10/30 06:03:05;;;;;;;11.77;10.40;;;;;;;12.25;100.00;99724.97;1663767;84;21093;-59
2022/10/30 06:05:34;;;;;;;12.73;10.07;;;;;;;12.26;100.00;99730.48;1659963;84;21051;-58
2022/10/30 06:08:02;;;;;;;12.63;9.87;;;;;;;12.32;100.00;99736.20;1663594;84;21239;-68
2022/10/30 06:10:31;;;;;;;11.27;9.60;;;;;;;12.32;100.00;99725.75;1663198;85;21005;-59
2022/10/30 06:13:13;;;;;;;13.67;10.50;;;;;;;12.36;100.00;99734.78;1664111;84;21013;-58
2022/10/30 06:15:42;;;;;;;12.23;9.00;;;;;;;12.41;100.00;99738.08;1666306;85;20942;-58
2022/10/30 06:18:09;;;;;;;14.33;9.93;;;;;;;12.43;100.00;99732.66;1662150;85;21114;-59
2022/10/30 06:20:41;;;;;;;13.87;10.57;;;;;;;12.50;100.00;99735.55;1668283;84;21995;-58
2022/10/30 06:23:10;;;;;;;14.30;11.13;;;;;;;12.63;100.00;99732.05;1624757;84;21017;-59
2022/10/30 06:25:39;;;;;;;12.07;10.50;;;;;;;12.80;100.00;99739.69;1663601;84;20945;-59
2022/10/30 06:28:13;;;;;;;16.40;10.67;;;;;;;12.83;100.00;99736.66;1662804;84;21072;-60
2022/10/30 06:33:22;;;;;;;16.80;10.87;;;;;;;12.96;100.00;99738.41;1681084;83;21243;-71
2022/10/30 06:35:52;;;;;;;12.03;10.40;;;;;;;12.96;100.00;99737.61;1680928;84;21109;-59
2022/10/30 06:38:20;;;;;;;12.07;10.20;;;;;;;12.99;100.00;99743.70;1679284;84;21391;-59
2022/10/30 06:40:49;;;;;;;15.30;10.90;;;;;;;12.91;100.00;99738.22;1673763;84;20999;-59
2022/10/30 06:43:27;;;;;;;14.23;11.27;;;;;;;12.94;100.00;99735.70;1704141;83;20965;-60
2022/10/30 06:45:57;;;;;;;15.23;10.67;;;;;;;12.91;100.00;99739.02;1695958;83;21229;-59
2022/10/30 06:48:24;;;;;;;12.53;10.03;;;;;;;12.97;100.00;99730.84;1700234;83;20950;-59
2022/10/30 06:50:56;;;;;;;12.90;10.40;;;;;;;12.95;100.00;99732.86;1703662;82;20949;-59
2022/10/30 06:53:24;;;;;;;13.20;10.57;;;;;;;13.00;100.00;99725.70;1704902;82;21433;-67
2022/10/30 06:56:02;;;;;;;12.93;10.30;;;;;;;12.99;100.00;99730.11;1701701;83;21048;-58
2022/10/30 06:58:43;;;;;;;12.13;9.97;;;;;;;13.02;100.00;99722.36;1677129;83;21371;-59
2022/10/30 07:01:12;;;;;;;16.60;10.83;;;;;;;13.07;100.00;99717.31;1689779;83;21034;-64
2022/10/30 07:03:53;;;;;;;12.80;10.53;;;;;;;13.12;100.00;99712.23;1688356;82;20977;-59
2022/10/30 07:06:21;;;;;;;12.80;10.30;;;;;;;13.15;100.00;99709.99;1701409;83;21600;-60
2022/10/30 07:08:49;;;;;;;15.33;10.87;;;;;;;13.19;100.00;99712.19;1701665;84;21597;-62
2022/10/30 07:11:18;;;;;;;14.13;11.30;;;;;;;13.25;100.00;99697.75;1670795;83;21408;-59
2022/10/30 07:13:50;;;;;;;11.77;9.60;;;;;;;13.28;100.00;99680.31;1645190;84;21035;-59
2022/10/30 07:16:19;;;;;;;13.33;10.90;;;;;;;13.34;100.00;99660.34;1667116;84;21452;-59
2022/10/30 07:18:51;;;;;;;12.87;11.03;;;;;;;13.33;100.00;99675.26;1668234;85;21369;-70
2022/10/30 07:21:18;;;;;;;13.10;10.63;;;;;;;13.36;100.00;99711.96;1676808;83;21489;-59
2022/10/30 07:23:45;;;;;;;13.17;10.17;;;;;;;13.41;100.00;99713.94;1684727;83;21399;-59
2022/10/30 07:26:36;;;;;;;12.73;9.57;;;;;;;13.40;100.00;99713.13;1673838;83;21102;-66
2022/10/30 07:29:04;;;;;;;12.80;9.65;;;;;;;13.33;100.00;99704.05;1684528;83;21031;-60
2022/10/30 07:31:48;;;;;;;12.25;10.28;;;;;;;13.34;100.00;99694.38;1675577;83;21042;-60
2022/10/30 07:34:17;;;;;;;13.90;10.30;;;;;;;13.33;100.00;99688.83;1671849;83;21067;-68
2022/10/30 07:36:50;;;;;;;11.83;9.67;;;;;;;13.38;100.00;99688.48;1681468;84;21160;-60
2022/10/30 07:39:28;;;;;;;14.27;9.73;;;;;;;13.44;100.00;99693.88;1669770;83;21048;-62
2022/10/30 07:42:03;;;;;;;11.53;10.07;;;;;;;13.51;100.00;99694.11;1669876;83;21099;-65
2022/10/30 07:44:41;;;;;;;14.63;10.70;;;;;;;13.54;100.00;99689.75;1677909;84;20971;-60
2022/10/30 07:47:19;;;;;;;13.70;9.27;;;;;;;13.51;100.00;99701.16;1659911;84;21007;-61
2022/10/30 07:49:51;;;;;;;12.13;9.47;;;;;;;13.53;100.00;99689.98;1682028;83;21211;-64
2022/10/30 07:52:19;;;;;;;13.60;10.13;;;;;;;13.57;100.00;99693.77;1684963;83;21585;-60
2022/10/30 07:54:48;;;;;;;15.40;9.80;;;;;;;13.62;100.00;99693.91;1675552;85;21107;-60
2022/10/30 07:57:26;;;;;;;13.53;9.40;;;;;;;13.68;100.00;99689.64;1719426;83;21113;-60
2022/10/30 08:00:13;;;;;;;11.77;9.50;;;;;;;13.80;100.00;99689.20;1663447;83;21097;-58
2022/10/30 08:02:40;;;;;;;12.97;9.80;;;;;;;13.98;100.00;99693.14;1662787;83;21138;-59
2022/10/30 08:05:09;;;;;;;12.10;9.20;;;;;;;14.12;100.00;99700.32;1658735;84;21918;-58
2022/10/30 08:07:56;;;;;;;14.27;10.00;;;;;;;14.29;100.00;99700.54;1684663;84;21715;-58
2022/10/30 08:10:24;;;;;;;14.30;9.57;;;;;;;14.46;100.00;99698.09;1675059;83;21042;-60
2022/10/30 08:12:52;;;;;;;13.30;9.13;;;;;;;14.51;100.00;99704.84;1676177;83;21095;-58
2022/10/30 08:15:21;;;;;;;13.80;9.47;;;;;;;14.63;100.00;99706.19;1681939;83;21923;-59
2022/10/30 08:17:50;;;;;;;11.43;9.50;;;;;;;14.68;100.00;99705.80;1682037;84;20954;-58
2022/10/30 08:20:22;;;;;;;13.90;9.37;;;;;;;14.65;100.00;99708.06;1669019;84;20913;-58
2022/10/30 08:22:52;;;;;;;11.90;9.43;;;;;;;14.74;100.00;99704.91;1684719;83;21168;-72
2022/10/30 08:25:24;;;;;;;12.53;9.23;;;;;;;14.77;100.00;99703.65;1682239;83;21585;-58
2022/10/30 08:28:04;;;;;;;12.27;9.43;;;;;;;14.77;100.00;99714.97;1685438;84;21243;-58
2022/10/30 08:30:34;;;;;;;18.63;9.67;;;;;;;14.74;100.00;99718.03;1676955;83;20995;-67
2022/10/30 08:33:05;;;;;;;14.03;9.90;;;;;;;14.69;100.00;99709.22;1682395;84;21089;-60
2022/10/30 08:35:51;;;;;;;12.70;9.30;;;;;;;14.68;100.00;99719.42;1673807;85;21035;-62
2022/10/30 08:38:18;;;;;;;15.07;9.30;;;;;;;14.72;100.00;99714.02;1680691;84;21059;-59
2022/10/30 08:40:47;;;;;;;11.60;9.37;;;;;;;14.75;100.00;99723.56;1682011;83;21137;-58
2022/10/30 08:43:14;;;;;;;13.40;9.93;;;;;;;14.72;100.00;99721.38;1671991;85;21600;-58
2022/10/30 08:45:43;;;;;;;12.97;9.63;;;;;;;14.66;100.00;99721.45;1677114;85;21064;-59
2022/10/30 08:48:15;;;;;;;14.80;10.23;;;;;;;14.60;100.00;99716.09;1647547;84;21085;-71
2022/10/30 08:50:45;;;;;;;18.80;15.80;;;;;;;14.60;100.00;99710.05;1672877;83;21138;-58
2022/10/30 08:53:14;;;;;;;13.23;9.80;;;;;;;14.64;100.00;99709.09;1685234;84;21213;-59
2022/10/30 08:55:41;;;;;;;12.90;10.47;;;;;;;14.67;100.00;99707.34;1674621;84;21639;-58
2022/10/30 08:58:16;;;;;;;11.57;8.93;;;;;;;14.65;100.00;99706.75;1672057;84;21057;-73
2022/10/30 09:00:43;;;;;;;11.93;9.23;;;;;;;14.77;100.00;99708.89;1682307;83;21113;-59
2022/10/30 09:03:10;;;;;;;12.40;9.13;;;;;;;14.79;100.00;99707.66;1679008;84;21107;-59
2022/10/30 09:05:49;;;;;;;13.93;9.10;;;;;;;14.73;100.00;99699.36;1701529;83;21230;-59
2022/10/30 09:08:16;;;;;;;11.17;8.37;;;;;;;14.90;100.00;99704.78;1663888;85;21103;-60
2022/10/30 09:10:57;;;;;;;13.03;8.47;;;;;;;15.08;100.00;99707.85;1677479;83;21071;-59
2022/10/30 09:13:25;;;;;;;13.70;9.57;;;;;;;15.28;100.00;99697.03;1667517;85;21081;-59
2022/10/30 09:15:52;;;;;;;13.20;9.07;;;;;;;15.45;100.00;99697.14;1698171;83;21004;-73
2022/10/30 09:18:19;;;;;;;11.67;8.83;;;;;;;15.52;100.00;99692.57;1682452;83;21202;-63
2022/10/30 09:20:49;;;;;;;13.20;8.80;;;;;;;15.54;100.00;99688.70;1667541;85;20992;-59
2022/10/30 09:23:16;;;;;;;12.37;8.90;;;;;;;15.64;100.00;99682.84;1682402;84;21090;-62
2022/10/30 09:25:45;;;;;;;10.60;7.77;;;;;;;15.71;100.00;99691.44;1675057;84;21079;-66
2022/10/30 09:28:20;;;;;;;17.90;9.77;;;;;;;15.79;100.00;99691.09;1675750;83;21388;-60
2022/10/30 09:31:05;;;;;;;10.17;7.70;;;;;;;15.95;100.00;99680.92;1677030;84;22177;-59
2022/10/30 09:33:35;;;;;;;13.30;8.67;;;;;;;16.05;100.00;99677.16;1684802;83;21532;-66
2022/10/30 09:36:13;;;;;;;10.50;7.53;;;;;;;16.15;100.00;99680.52;1666017;85;21135;-59
2022/10/30 09:38:42;;;;;;;11.20;7.33;;;;;;;16.21;100.00;99671.19;1673471;85;21536;-61
2022/10/30 09:41:26;;;;;;;11.97;7.90;;;;;;;16.30;100.00;99671.08;1673315;83;21028;-60
2022/10/30 09:44:20;;;;;;;9.90;7.00;;;;;;;16.36;100.00;99668.02;1678381;84;21103;-61
2022/10/30 09:47:19;;;;;;;10.77;6.80;;;;;;;16.39;100.00;99670.17;1680043;84;21008;-59
2022/10/30 09:50:22;;;;;;;11.17;6.90;;;;;;;16.38;100.00;99677.80;1671571;83;21343;-59
2022/10/30 09:53:02;;;;;;;12.97;7.40;;;;;;;16.39;100.00;99675.96;1683967;84;21007;-60
2022/10/30 09:55:50;;;;;;;9.00;7.23;;;;;;;16.39;100.00;99666.23;1679308;83;22069;-60
2022/10/30 09:58:34;;;;;;;9.63;6.53;;;;;;;16.37;100.00;99680.67;1668097;85;21660;-62
2022/10/30 10:01:32;;;;;;;9.50;6.40;;;;;;;16.30;100.00;99678.97;1671220;83;20971;-60
2022/10/30 10:04:27;;;;;;;11.00;6.70;;;;;;;16.33;100.00;99677.71;1676841;83;21329;-60
2022/10/30 10:07:23;;;;;;;10.48;8.13;;;;;;;16.40;100.00;99674.92;1678299;85;21158;-60
2022/10/30 10:09:56;;;;;;;8.43;6.87;;;;;;;16.57;100.00;99672.34;1676706;83;20982;-61
2022/10/30 10:12:49;;;;;;;10.03;6.50;;;;;;;16.67;100.00;99664.64;1660554;83;22270;-77
2022/10/30 10:15:33;;;;;;;10.00;6.97;;;;;;;16.77;100.00;99666.93;1675577;85;21083;-65
2022/10/30 10:18:00;;;;;;;9.47;6.43;;;;;;;16.87;100.00;99662.36;1682603;85;21608;-79
2022/10/30 10:20:39;;;;;;;10.07;6.27;;;;;;;16.95;100.00;99652.75;1683229;83;21868;-60
2022/10/30 10:23:26;;;;;;;10.20;6.23;;;;;;;17.04;100.00;99657.09;1671301;85;21019;-60
2022/10/30 10:25:54;;;;;;;9.77;6.43;;;;;;;17.01;100.00;99651.01;1672544;84;22382;-64
2022/10/30 10:28:50;;;;;;;11.53;5.93;;;;;;;16.96;100.00;99662.75;1676668;85;21058;-59
2022/10/30 10:31:47;;;;;;;9.50;6.20;;;;;;;16.90;100.00;99665.05;1671480;84;21540;-61
2022/10/30 10:34:45;;;;;;;8.30;5.50;;;;;;;16.88;100.00;99663.16;1682190;84;21051;-62
2022/10/30 10:37:20;;;;;;;10.17;5.77;;;;;;;16.80;100.00;99667.50;1681131;83;20983;-60
2022/10/30 10:40:28;;;;;;;8.33;5.43;;;;;;;16.65;100.00;99672.75;1674923;83;21136;-60
2022/10/30 10:43:21;;;;;;;8.43;5.40;;;;;;;16.60;100.00;99671.88;1676123;84;21091;-60
2022/10/30 10:46:41;;;;;;;13.63;10.93;;;;;;;16.42;100.00;99674.98;1683795;84;21047;-60
2022/10/30 10:49:16;;;;;;;9.40;5.83;;;;;;;16.35;100.00;99665.63;1676105;83;21064;-61
2022/10/30 10:51:48;;;;;;;11.43;5.57;;;;;;;16.24;100.00;99670.69;1670514;85;21126;-59
2022/10/30 10:54:26;;;;;;;7.43;5.37;;;;;;;16.25;100.00;99672.31;1684649;83;21226;-61
2022/10/30 10:56:53;;;;;;;7.53;4.50;;;;;;;16.25;100.00;99672.31;1678425;83;21079;-77
2022/10/30 10:59:40;;;;;;;7.33;5.17;;;;;;;16.28;100.00;99669.70;1682888;83;21801;-59
2022/10/30 11:02:29;;;;;;;7.57;5.33;;;;;;;16.28;100.00;99663.92;1671914;85;21114;-59
2022/10/30 11:05:07;;;;;;;10.33;5.20;;;;;;;16.32;100.00;99658.20;1684551;84;21003;-62
2022/10/30 11:07:48;;;;;;;7.27;4.80;;;;;;;16.39;100.00;99661.49;1676175;85;21337;-63
2022/10/30 11:10:17;;;;;;;8.87;4.93;;;;;;;16.42;100.00;99663.14;1681947;84;20979;-62
2022/10/30 11:12:44;;;;;;;7.67;4.60;;;;;;;16.48;100.00;99666.67;1670925;85;20971;-61
2022/10/30 11:15:22;;;;;;;7.67;5.20;;;;;;;16.53;100.00;99665.44;1679316;84;20995;-63
2022/10/30 11:18:06;;;;;;;8.67;5.20;;;;;;;16.58;100.00;99656.31;1678241;83;21011;-81
2022/10/30 11:21:12;;;;;;;6.57;4.33;;;;;;;16.73;100.00;99655.28;1676140;84;21203;-66
2022/10/30 11:23:41;;;;;;;8.67;5.70;;;;;;;16.96;100.00;99656.97;1674425;83;21126;-62
2022/10/30 11:26:20;;;;;;;7.73;4.67;;;;;;;17.26;100.00;99651.37;1682332;84;20971;-62
2022/10/30 11:28:54;;;;;;;9.97;6.17;;;;;;;17.56;100.00;99659.42;1677721;84;21015;-82
2022/10/30 11:31:27;;;;;;;9.47;5.70;;;;;;;17.87;100.00;99664.59;1655993;85;21549;-62
2022/10/30 11:33:54;;;;;;;9.63;5.60;;;;;;;18.04;100.00;99658.47;1672451;85;21304;-62
2022/10/30 11:36:23;;;;;;;7.40;4.53;;;;;;;17.97;100.00;99657.33;1674952;84;21048;-69
2022/10/30 11:38:51;;;;;;;9.27;6.63;;;;;;;17.87;100.00;99655.89;1681474;83;21924;-62
2022/10/30 11:41:20;;;;;;;8.17;5.47;;;;;;;17.69;100.00;99655.13;1650954;84;39698;-62
2022/10/30 11:43:48;;;;;;;8.60;4.97;;;;;;;17.51;100.00;99646.19;1682623;85;21078;-61
2022/10/30 11:46:20;;;;;;;9.77;6.83;;;;;;;17.36;100.00;99653.36;1653127;84;21274;-69
2022/10/30 11:48:53;;;;;;;7.70;6.03;;;;;;;17.24;100.00;99646.88;1672884;85;22127;-62